createdAt,value
2022-09-05T00:00:19.700Z,18.58
2022-09-05T00:02:58.713Z,18.58
2022-09-05T00:05:57.573Z,18.59
2022-09-05T00:08:37.973Z,18.57
2022-09-05T00:11:42.604Z,18.58
2022-09-05T00:14:34.289Z,18.56
2022-09-05T00:17:18.683Z,18.57
2022-09-05T00:24:21.632Z,18.56
2022-09-05T00:24:29.486Z,18.55
2022-09-05T00:26:12.888Z,18.55
2022-09-05T00:28:49.773Z,18.53
2022-09-05T00:31:53.796Z,18.51
2022-09-05T00:34:48.182Z,18.49
2022-09-05T00:37:28.504Z,18.46
2022-09-05T00:40:17.781Z,18.47
2022-09-05T00:42:50.164Z,18.46
2022-09-05T00:45:25.323Z,18.45
2022-09-05T00:48:03.109Z,18.46
2022-09-05T00:50:40.118Z,18.47
2022-09-05T00:53:15.653Z,18.46
2022-09-05T00:55:58.969Z,18.47
2022-09-05T00:58:55.391Z,18.48
2022-09-05T01:01:38.333Z,18.49
2022-09-05T01:04:24.728Z,18.50
2022-09-05T01:07:29.805Z,18.50
2022-09-05T01:10:08.954Z,18.50
2022-09-05T01:12:52.905Z,18.52
2022-09-05T01:15:32.125Z,18.52
2022-09-05T01:18:15.423Z,18.53
2022-09-05T01:21:00.678Z,18.54
2022-09-05T01:23:54.945Z,18.54
2022-09-05T01:26:58.447Z,18.53
2022-09-05T01:29:36.106Z,18.52
2022-09-05T01:32:18.111Z,18.53
2022-09-05T01:34:57.866Z,18.53
2022-09-05T01:37:34.291Z,18.52
2022-09-05T01:40:20.603Z,18.50
2022-09-05T01:43:02.550Z,18.50
2022-09-05T01:45:47.640Z,18.47
2022-09-05T01:48:31.291Z,18.46
2022-09-05T01:51:28.644Z,18.46
2022-09-05T01:54:19.835Z,18.44
2022-09-05T01:57:04.341Z,18.40
2022-09-05T01:59:42.243Z,18.37
2022-09-05T02:02:33.675Z,18.34
2022-09-05T02:05:15.130Z,18.28
2022-09-05T02:08:14.883Z,18.24
2022-09-05T02:11:02.935Z,18.17
2022-09-05T02:13:44.979Z,18.13
2022-09-05T02:16:22.300Z,18.09
2022-09-05T02:19:01.169Z,18.03
2022-09-05T02:21:56.309Z,17.98
2022-09-05T02:24:29.162Z,17.93
2022-09-05T02:27:47.603Z,17.88
2022-09-05T02:30:09.917Z,17.84
2022-09-05T02:32:49.226Z,17.82
2022-09-05T02:35:28.238Z,17.78
2022-09-05T02:39:58.987Z,17.73
2022-09-05T02:45:17.001Z,17.69
2022-09-05T02:45:23.977Z,17.65
2022-09-05T02:46:50.779Z,17.63
2022-09-05T02:50:34.771Z,17.61
2022-09-05T02:57:26.978Z,17.60
2022-09-05T02:57:41.357Z,17.59
2022-09-05T02:58:22.039Z,17.58
2022-09-05T03:01:00.247Z,17.57
2022-09-05T03:03:35.672Z,17.55
2022-09-05T03:06:32.141Z,17.53
2022-09-05T03:09:31.218Z,17.54
2022-09-05T03:12:46.362Z,17.52
2022-09-05T03:15:47.667Z,17.52
2022-09-05T03:18:37.613Z,17.50
2022-09-05T03:21:39.578Z,17.48
2022-09-05T03:24:31.958Z,17.47
2022-09-05T03:27:30.316Z,17.46
2022-09-05T03:30:07.194Z,17.43
2022-09-05T03:33:03.168Z,17.41
2022-09-05T03:36:04.254Z,17.38
2022-09-05T03:39:16.024Z,17.33
2022-09-05T03:42:04.243Z,17.29
2022-09-05T03:44:58.129Z,17.26
2022-09-05T03:47:44.377Z,17.23
2022-09-05T03:53:31.009Z,17.22
2022-09-05T03:57:10.632Z,17.17
2022-09-05T03:57:26.848Z,17.12
2022-09-05T04:00:04.459Z,17.07
2022-09-05T04:07:27.002Z,17.03
2022-09-05T04:08:17.303Z,17.00
2022-09-05T04:08:34.068Z,16.96
2022-09-05T04:11:14.883Z,16.92
2022-09-05T04:13:49.637Z,16.90
2022-09-05T04:16:24.699Z,16.87
2022-09-05T04:18:55.868Z,16.83
2022-09-05T04:21:28.328Z,16.80
2022-09-05T04:24:06.688Z,16.75
2022-09-05T04:26:55.953Z,16.71
2022-09-05T04:29:29.477Z,16.66
2022-09-05T04:32:18.105Z,16.64
2022-09-05T04:35:05.512Z,16.61
2022-09-05T04:37:47.991Z,16.57
2022-09-05T04:40:51.169Z,16.54
2022-09-05T04:43:31.488Z,16.52
2022-09-05T04:46:09.730Z,16.49
2022-09-05T04:48:47.229Z,16.47
2022-09-05T04:51:44.067Z,16.43
2022-09-05T04:54:30.314Z,16.40
2022-09-05T04:57:13.929Z,16.38
2022-09-05T05:05:30.479Z,16.36
2022-09-05T05:06:08.548Z,16.33
2022-09-05T05:06:09.766Z,16.31
2022-09-05T05:08:39.213Z,16.30
2022-09-05T05:16:38.365Z,16.28
2022-09-05T05:17:54.027Z,16.29
2022-09-05T05:18:08.634Z,16.27
2022-09-05T05:20:39.267Z,16.25
2022-09-05T05:22:47.369Z,16.24
2022-09-05T05:25:15.364Z,16.22
2022-09-05T05:27:47.533Z,16.21
2022-09-05T05:30:26.684Z,16.21
2022-09-05T05:32:56.209Z,16.23
2022-09-05T05:35:29.597Z,16.24
2022-09-05T05:38:19.997Z,16.23
2022-09-05T05:40:54.195Z,16.22
2022-09-05T05:43:27.315Z,16.22
2022-09-05T05:46:00.072Z,16.22
2022-09-05T05:48:36.706Z,16.22
2022-09-05T05:51:36.407Z,16.22
2022-09-05T05:54:28.007Z,16.23
2022-09-05T05:57:23.687Z,16.23
2022-09-05T06:00:04.348Z,16.24
2022-09-05T06:03:25.634Z,16.27
2022-09-05T06:06:09.515Z,16.26
2022-09-05T06:12:21.269Z,16.28
2022-09-05T06:15:02.059Z,16.31
2022-09-05T06:15:30.206Z,16.34
2022-09-05T06:18:45.610Z,16.36
2022-09-05T06:22:06.057Z,16.39
2022-09-05T06:25:21.913Z,16.44
2022-09-05T06:28:18.343Z,16.48
2022-09-05T06:30:57.639Z,16.51
2022-09-05T06:33:55.496Z,16.56
2022-09-05T06:36:35.931Z,16.61
2022-09-05T06:39:11.210Z,16.66
2022-09-05T06:41:50.370Z,16.70
2022-09-05T06:44:44.087Z,16.77
2022-09-05T06:47:24.045Z,16.80
2022-09-05T06:50:24.303Z,16.84
2022-09-05T06:53:19.894Z,16.93
2022-09-05T06:56:08.557Z,16.97
2022-09-05T06:59:12.633Z,17.02
2022-09-05T07:02:00.520Z,17.10
2022-09-05T07:05:37.844Z,17.17
2022-09-05T07:07:33.905Z,17.26
2022-09-05T07:10:22.377Z,17.31
2022-09-05T07:13:05.313Z,17.40
2022-09-05T07:15:41.887Z,17.49
2022-09-05T07:18:22.175Z,17.56
2022-09-05T07:21:17.104Z,17.65
2022-09-05T07:24:09.549Z,17.76
2022-09-05T07:26:51.684Z,17.83
2022-09-05T07:29:25.088Z,17.92
2022-09-05T07:31:57.218Z,18.01
2022-09-05T07:34:30.050Z,18.11
2022-09-05T07:37:15.303Z,18.21
2022-09-05T07:39:49.927Z,18.28
2022-09-05T07:42:24.511Z,18.38
2022-09-05T07:44:56.618Z,18.46
2022-09-05T07:47:28.945Z,18.54
2022-09-05T07:50:32.492Z,18.62
2022-09-05T07:56:46.722Z,18.72
2022-09-05T07:57:12.724Z,18.82
2022-09-05T07:58:41.266Z,18.95
2022-09-05T08:01:12.699Z,19.07
2022-09-05T08:03:43.074Z,19.18
2022-09-05T08:06:18.403Z,19.28
2022-09-05T08:10:05.335Z,19.43
2022-09-05T08:12:09.380Z,19.57
2022-09-05T08:14:45.959Z,19.72
2022-09-05T08:17:18.169Z,19.87
2022-09-05T08:20:08.515Z,20.04
2022-09-05T08:22:52.478Z,20.21
2022-09-05T08:25:27.435Z,20.37
2022-09-05T08:28:16.552Z,20.54
2022-09-05T08:30:48.413Z,20.69
2022-09-05T08:33:22.466Z,20.84
2022-09-05T08:35:59.306Z,21.00
2022-09-05T08:38:40.455Z,21.16
2022-09-05T08:41:17.513Z,21.30
2022-09-05T08:46:36.246Z,21.45
2022-09-05T08:46:50.815Z,21.58
2022-09-05T08:49:44.003Z,21.76
2022-09-05T08:52:26.064Z,21.92
2022-09-05T08:55:07.842Z,22.09
2022-09-05T08:58:03.152Z,22.25
2022-09-05T09:00:36.841Z,22.40
2022-09-05T09:03:14.179Z,22.55
2022-09-05T09:06:16.142Z,22.71
2022-09-05T09:09:08.626Z,22.84
2022-09-05T09:11:42.632Z,22.97
2022-09-05T09:14:36.503Z,23.15
2022-09-05T09:17:20.392Z,23.26
2022-09-05T09:19:56.338Z,23.39
2022-09-05T09:22:39.170Z,23.50
2022-09-05T09:25:16.023Z,23.58
2022-09-05T09:28:43.732Z,23.66
2022-09-05T09:31:10.540Z,23.75
2022-09-05T09:33:43.104Z,23.90
2022-09-05T09:36:26.775Z,24.07
2022-09-05T09:39:21.571Z,24.23
2022-09-05T09:42:33.578Z,24.42
2022-09-05T09:45:41.491Z,24.53
2022-09-05T09:48:37.379Z,24.74
2022-09-05T09:51:19.870Z,24.92
2022-09-05T09:54:03.194Z,25.11
2022-09-05T09:56:50.563Z,25.25
2022-09-05T09:59:35.387Z,25.42
2022-09-05T10:05:18.246Z,25.55
2022-09-05T10:10:45.726Z,25.64
2022-09-05T10:10:56.273Z,25.73
2022-09-05T10:11:53.623Z,25.80
2022-09-05T10:14:49.341Z,25.86
2022-09-05T10:17:50.838Z,25.91
2022-09-05T10:20:36.026Z,25.94
2022-09-05T10:23:34.253Z,26.06
2022-09-05T10:26:43.170Z,26.24
2022-09-05T10:29:36.647Z,26.37
2022-09-05T10:35:08.324Z,26.47
2022-09-05T10:35:22.187Z,26.61
2022-09-05T10:37:57.628Z,26.74
2022-09-05T10:40:28.620Z,26.88
2022-09-05T10:43:02.484Z,27.04
2022-09-05T10:45:47.220Z,27.32
2022-09-05T10:48:23.954Z,27.55
2022-09-05T10:51:01.426Z,27.67
2022-09-05T10:53:40.242Z,27.82
2022-09-05T10:56:13.979Z,28.04
2022-09-05T11:01:33.404Z,28.15
2022-09-05T11:02:28.059Z,28.34
2022-09-05T11:04:52.282Z,28.52
2022-09-05T11:07:32.240Z,28.69
2022-09-05T11:10:08.146Z,28.76
2022-09-05T11:12:58.284Z,28.73
2022-09-05T11:15:34.066Z,28.74
2022-09-05T11:18:04.937Z,28.69
2022-09-05T11:20:45.345Z,28.78
2022-09-05T11:23:21.270Z,28.92
2022-09-05T11:25:57.484Z,29.05
2022-09-05T11:28:36.916Z,29.08
2022-09-05T11:31:12.754Z,29.24
2022-09-05T11:39:48.085Z,29.49
2022-09-05T11:40:00.280Z,29.80
2022-09-05T11:40:28.721Z,29.98
2022-09-05T11:43:37.662Z,30.04
2022-09-05T11:46:23.873Z,30.19
2022-09-05T11:49:36.433Z,30.22
2022-09-05T11:52:41.499Z,30.34
2022-09-05T11:56:06.154Z,30.64
2022-09-05T11:59:10.401Z,30.71
2022-09-05T12:01:55.597Z,30.70
2022-09-05T12:05:48.992Z,30.73
2022-09-05T12:07:46.827Z,30.87
2022-09-05T12:10:46.935Z,31.00
2022-09-05T12:13:34.071Z,30.98
2022-09-05T12:16:10.318Z,30.95
2022-09-05T12:18:48.214Z,31.12
2022-09-05T12:21:31.665Z,31.31
2022-09-05T12:25:16.550Z,31.32
2022-09-05T12:27:43.733Z,31.43
2022-09-05T12:29:59.959Z,31.58
2022-09-05T12:33:33.854Z,31.59
2022-09-05T12:36:12.597Z,31.55
2022-09-05T12:40:57.991Z,31.69
2022-09-05T12:41:40.699Z,31.86
2022-09-05T12:44:42.679Z,31.91
2022-09-05T12:47:16.687Z,32.05
2022-09-05T12:49:54.246Z,32.16
2022-09-05T12:52:42.773Z,32.30
2022-09-05T12:55:19.459Z,32.30
2022-09-05T13:02:45.317Z,32.28
2022-09-05T13:03:01.533Z,32.32
2022-09-05T13:03:59.435Z,32.43
2022-09-05T13:06:30.198Z,32.64
2022-09-05T13:09:03.926Z,32.93
2022-09-05T13:14:47.274Z,33.12
2022-09-05T13:15:07.657Z,33.29
2022-09-05T13:17:44.473Z,33.54
2022-09-05T13:20:19.045Z,33.66
2022-09-05T13:22:50.555Z,33.84
2022-09-05T13:25:27.014Z,33.95
2022-09-05T13:28:02.249Z,33.97
2022-09-05T13:31:51.072Z,34.18
2022-09-05T13:37:59.036Z,34.42
2022-09-05T13:38:07.748Z,34.43
2022-09-05T13:39:13.451Z,34.36
2022-09-05T13:41:45.425Z,34.17
2022-09-05T13:44:27.601Z,33.98
2022-09-05T13:47:00.945Z,34.01
2022-09-05T13:49:37.186Z,34.10
2022-09-05T13:52:26.244Z,34.19
2022-09-05T13:55:18.780Z,34.13
2022-09-05T13:57:49.836Z,34.07
2022-09-05T14:00:54.279Z,34.16
2022-09-05T14:03:43.848Z,34.15
2022-09-05T14:06:47.666Z,34.07
2022-09-05T14:09:38.383Z,34.06
2022-09-05T14:12:15.567Z,34.13
2022-09-05T14:17:58.285Z,33.99
2022-09-05T14:21:02.349Z,34.00
2022-09-05T14:23:53.564Z,34.01
2022-09-05T14:26:28.227Z,33.92
2022-09-05T14:29:16.105Z,33.80
2022-09-05T14:37:39.114Z,33.70
2022-09-05T14:38:01.677Z,33.66
2022-09-05T14:38:25.305Z,33.64
2022-09-05T14:41:30.833Z,33.51
2022-09-05T14:44:37.890Z,33.31
2022-09-05T14:47:47.420Z,33.14
2022-09-05T14:50:40.483Z,33.00
2022-09-05T14:58:53.722Z,32.85
2022-09-05T15:02:49.441Z,32.53
2022-09-05T15:02:54.611Z,32.71
2022-09-05T15:05:19.913Z,32.43
2022-09-05T15:07:49.628Z,32.22
2022-09-05T15:12:21.593Z,32.05
2022-09-05T15:13:25.645Z,31.90
2022-09-05T15:16:02.611Z,31.72
2022-09-05T15:18:33.959Z,31.48
2022-09-05T15:21:33.243Z,31.28
2022-09-05T15:24:13.651Z,31.11
2022-09-05T15:26:52.605Z,30.94
2022-09-05T15:29:23.207Z,30.83
2022-09-05T15:31:59.412Z,30.68
2022-09-05T15:34:39.097Z,30.49
2022-09-05T15:37:23.616Z,30.28
2022-09-05T15:40:02.382Z,30.12
2022-09-05T15:42:32.945Z,29.95
2022-09-05T15:45:10.770Z,29.81
2022-09-05T15:47:47.416Z,29.67
2022-09-05T15:50:22.618Z,29.51
2022-09-05T15:52:55.793Z,29.37
2022-09-05T15:55:26.367Z,29.21
2022-09-05T15:57:56.427Z,29.04
2022-09-05T16:00:51.275Z,28.83
2022-09-05T16:05:06.689Z,28.62
2022-09-05T16:10:35.150Z,28.41
2022-09-05T16:10:44.976Z,28.17
2022-09-05T16:12:18.877Z,27.98
2022-09-05T16:16:29.907Z,27.83
2022-09-05T16:23:27.189Z,27.53
2022-09-05T16:23:34.923Z,27.68
2022-09-05T16:23:46.822Z,27.38
2022-09-05T16:26:19.100Z,27.28
2022-09-05T16:31:58.955Z,27.07
2022-09-05T16:34:35.232Z,27.00
2022-09-05T16:37:09.295Z,26.93
2022-09-05T16:39:41.598Z,26.87
2022-09-05T16:42:18.094Z,26.81
2022-09-05T16:44:52.227Z,26.73
2022-09-05T16:47:25.570Z,26.65
2022-09-05T16:50:00.667Z,26.57
2022-09-05T16:52:37.831Z,26.47
2022-09-05T16:55:12.810Z,26.38
2022-09-05T16:57:45.078Z,26.30
2022-09-05T17:00:16.743Z,26.21
2022-09-05T17:02:53.496Z,26.12
2022-09-05T17:05:28.957Z,26.00
2022-09-05T17:08:04.731Z,25.90
2022-09-05T17:10:36.089Z,25.80
2022-09-05T17:13:06.853Z,25.72
2022-09-05T17:15:37.174Z,25.61
2022-09-05T17:18:22.542Z,25.53
2022-09-05T17:20:55.186Z,25.45
2022-09-05T17:29:15.848Z,25.39
2022-09-05T17:29:25.566Z,25.28
2022-09-05T17:32:41.767Z,25.06
2022-09-05T17:35:26.164Z,24.97
2022-09-05T17:38:16.607Z,24.90
2022-09-05T17:41:13.266Z,24.80
2022-09-05T17:43:42.448Z,24.72
2022-09-05T17:46:20.134Z,24.66
2022-09-05T17:49:17.743Z,24.58
2022-09-05T17:52:17.384Z,24.49
2022-09-05T17:54:50.219Z,24.42
2022-09-05T17:57:37.669Z,24.36
2022-09-05T18:00:47.392Z,24.29
2022-09-05T18:04:17.241Z,24.22
2022-09-05T18:06:59.473Z,24.14
2022-09-05T18:10:12.292Z,24.09
2022-09-05T18:13:12.888Z,24.03
2022-09-05T18:16:04.326Z,23.98
2022-09-05T18:19:28.177Z,23.94
2022-09-05T18:21:25.726Z,23.88
2022-09-05T18:24:02.141Z,23.84
2022-09-05T18:26:39.274Z,23.83
2022-09-05T18:29:15.879Z,23.79
2022-09-05T18:32:03.754Z,23.74
2022-09-05T18:34:45.077Z,23.69
2022-09-05T18:38:00.094Z,23.64
2022-09-05T18:40:40.639Z,23.58
2022-09-05T18:43:15.669Z,23.53
2022-09-05T18:45:52.856Z,23.47
2022-09-05T18:48:29.797Z,23.42
2022-09-05T18:51:13.377Z,23.37
2022-09-05T18:53:47.490Z,23.31
2022-09-05T18:56:27.362Z,23.27
2022-09-05T18:59:09.951Z,23.23
2022-09-05T19:01:43.673Z,23.18
2022-09-05T19:04:40.522Z,23.15
2022-09-05T19:07:09.113Z,23.10
2022-09-05T19:09:39.712Z,23.06
2022-09-05T19:12:32.889Z,23.01
2022-09-05T19:15:06.936Z,22.97
2022-09-05T19:17:39.347Z,22.92
2022-09-05T19:20:32.515Z,22.89
2022-09-05T19:23:11.179Z,22.86
2022-09-05T19:25:42.514Z,22.82
2022-09-05T19:35:33.270Z,22.78
2022-09-05T19:36:47.390Z,22.75
2022-09-05T19:36:53.762Z,22.70
2022-09-05T19:37:25.521Z,22.66
2022-09-05T19:44:12.477Z,22.60
2022-09-05T19:47:48.432Z,22.50
2022-09-05T19:47:51.482Z,22.54
2022-09-05T19:48:18.575Z,22.43
2022-09-05T19:50:48.613Z,22.38
2022-09-05T19:53:18.511Z,22.33
2022-09-05T19:55:46.914Z,22.30
2022-09-05T19:58:19.015Z,22.27
2022-09-05T20:01:00.905Z,22.22
2022-09-05T20:03:38.432Z,22.17
2022-09-05T20:06:30.608Z,22.14
2022-09-05T20:09:10.715Z,22.08
2022-09-05T20:11:46.114Z,22.03
2022-09-05T20:14:20.164Z,22.00
2022-09-05T20:16:49.963Z,21.97
2022-09-05T20:19:30.890Z,21.93
2022-09-05T20:22:18.805Z,21.89
2022-09-05T20:24:55.739Z,21.84
2022-09-05T20:27:28.591Z,21.79
2022-09-05T20:29:59.917Z,21.75
2022-09-05T20:32:39.384Z,21.73
2022-09-05T20:40:19.300Z,21.70
2022-09-05T20:43:23.649Z,21.62
2022-09-05T20:43:24.418Z,21.66
2022-09-05T20:43:54.638Z,21.59
2022-09-05T20:49:49.854Z,21.56
2022-09-05T20:54:08.877Z,21.54
2022-09-05T20:54:14.520Z,21.51
2022-09-05T20:55:38.293Z,21.47
2022-09-05T20:58:11.789Z,21.45
2022-09-05T21:01:15.392Z,21.42
2022-09-05T21:03:34.702Z,21.40
2022-09-05T21:06:11.718Z,21.40
2022-09-05T21:08:39.685Z,21.38
2022-09-05T21:11:08.996Z,21.36
2022-09-05T21:13:48.821Z,21.35
2022-09-05T21:16:23.441Z,21.33
2022-09-05T21:18:52.539Z,21.30
2022-09-05T21:21:28.564Z,21.28
2022-09-05T21:24:23.405Z,21.26
2022-09-05T21:26:52.501Z,21.23
2022-09-05T21:29:32.246Z,21.22
2022-09-05T21:32:05.584Z,21.19
2022-09-05T21:34:45.190Z,21.18
2022-09-05T21:37:16.058Z,21.15
2022-09-05T21:39:57.128Z,21.13
2022-09-05T21:46:31.686Z,21.10
2022-09-05T21:47:38.727Z,21.08
2022-09-05T21:48:07.685Z,21.05
2022-09-05T21:50:40.368Z,21.01
2022-09-05T21:55:01.178Z,20.98
2022-09-05T21:59:17.034Z,20.95
2022-09-05T21:59:27.323Z,20.91
2022-09-05T22:01:53.332Z,20.87
2022-09-05T22:04:22.434Z,20.83
2022-09-05T22:06:53.143Z,20.80
2022-09-05T22:09:22.353Z,20.78
2022-09-05T22:11:51.443Z,20.74
2022-09-05T22:14:23.694Z,20.69
2022-09-05T22:16:54.329Z,20.64
2022-09-05T22:19:37.165Z,20.60
2022-09-05T22:22:15.665Z,20.57
2022-09-05T22:24:47.882Z,20.52
2022-09-05T22:27:19.975Z,20.48
2022-09-05T22:29:50.485Z,20.45
2022-09-05T22:32:32.401Z,20.41
2022-09-05T22:35:26.997Z,20.39
2022-09-05T22:37:59.173Z,20.34
2022-09-05T22:40:28.117Z,20.29
2022-09-05T22:42:56.793Z,20.26
2022-09-05T22:45:26.129Z,20.23
2022-09-05T22:47:54.202Z,20.20
2022-09-05T22:50:23.066Z,20.15
2022-09-05T22:52:51.099Z,20.11
2022-09-05T22:55:19.276Z,20.08
2022-09-05T22:57:47.261Z,20.06
2022-09-05T23:00:15.912Z,20.04
2022-09-05T23:02:48.950Z,19.99
2022-09-05T23:05:19.481Z,19.95
2022-09-05T23:07:47.221Z,19.91
2022-09-05T23:10:15.506Z,19.86
2022-09-05T23:12:43.218Z,19.83
2022-09-05T23:15:11.670Z,19.78
2022-09-05T23:17:39.413Z,19.76
2022-09-05T23:20:10.505Z,19.73
2022-09-05T23:22:39.024Z,19.69
2022-09-05T23:25:08.163Z,19.65
2022-09-05T23:27:36.757Z,19.62
2022-09-05T23:30:05.831Z,19.59
2022-09-05T23:32:33.539Z,19.57
2022-09-05T23:35:01.767Z,19.53
2022-09-05T23:37:30.809Z,19.48
2022-09-05T23:39:58.591Z,19.46
2022-09-05T23:42:26.357Z,19.43
2022-09-05T23:44:54.230Z,19.39
2022-09-05T23:47:21.905Z,19.36
2022-09-05T23:49:49.597Z,19.32
2022-09-05T23:52:17.347Z,19.30
2022-09-05T23:54:46.364Z,19.26
2022-09-05T23:57:14.166Z,19.23
2022-09-05T23:59:41.852Z,19.19
